PWSweather.com
Personal Weather Stations
Station Observations
WISCHPK61
Green Bay Schmitt Park, Green Bay, WI 54311

Green Bay Schmitt ParkGreen Bay, WI 54311

Lat: 44.514277, Lon: -87.935067

Elevation: 735

Station Type: Acu Rite Pro Weather Center model 02032C

http://greenbayweathercam.com

High Low Average
Temperature 23.3°F-4.8°C 16.2°F-8.8°C 18.7°F-7.4°C
Dew Point 23.0°F-5.0°C 9.0°F-12.8°C 18.0°F-7.8°C
Winds 1.2 mph 1.9 kmh Calm Calm Calm WSWCalm WSW
Wind Gusts 2.3 mph3.7 kmh -- --
Humidity 99% 72% 97%
Pressure 29.73 in1006.8 mb 29.62 in1003.0 mb -
Precipitation 0.00 in0.0 mm - -
Hour Temp Dew Point Humidity Winds Wind Gusts Pressure Precip Precip Rate Daily Precip Total
12:00 AM 16.7°F-8.5°C 16.5°F-8.6°C 99% Calm Calm -- 29.62 in1003.0 mb - 0.00 in0.0 mm 0.00 in0.0 mm
01:00 AM 17.4°F-8.1°C 17.2°F-8.2°C 99% Calm Calm -- 29.62 in1003.0 mb - 0.00 in0.0 mm 0.00 in0.0 mm
02:00 AM 17.6°F-8.0°C 17.4°F-8.1°C 99% Calm Calm -- 29.63 in1003.4 mb - 0.00 in0.0 mm 0.00 in0.0 mm
03:00 AM 17.2°F-8.2°C 17.0°F-8.3°C 99% Calm Calm -- 29.64 in1003.7 mb - 0.00 in0.0 mm 0.00 in0.0 mm
04:00 AM 17.1°F-8.3°C 16.9°F-8.4°C 99% Calm Calm -- 29.65 in1004.1 mb - 0.00 in0.0 mm 0.00 in0.0 mm
05:00 AM 16.3°F-8.7°C 11.8°F-11.2°C 82% Calm Calm 1.2 mph1.9 kmh 29.65 in1004.1 mb - 0.00 in0.0 mm 0.00 in0.0 mm
06:00 AM 16.2°F-8.8°C 16.0°F-8.9°C 99% Calm Calm -- 29.66 in1004.4 mb - 0.00 in0.0 mm 0.00 in0.0 mm
07:00 AM 16.3°F-8.7°C 16.1°F-8.8°C 99% Calm Calm -- 29.67 in1004.7 mb - 0.00 in0.0 mm 0.00 in0.0 mm
08:00 AM 16.2°F-8.8°C 16.0°F-8.9°C 99% Calm Calm -- 29.68 in1005.1 mb - 0.00 in0.0 mm 0.00 in0.0 mm
09:00 AM 16.5°F-8.6°C 9.0°F-12.8°C 72% Calm Calm -- 29.68 in1005.1 mb - 0.00 in0.0 mm 0.00 in0.0 mm
10:00 AM 18.5°F-7.5°C 18.3°F-7.6°C 99% Calm Calm -- 29.71 in1006.1 mb - 0.00 in0.0 mm 0.00 in0.0 mm
11:00 AM 19.9°F-6.7°C 19.6°F-6.9°C 99% 1.2 mph WNW1.9 kmh WNW 2.3 mph3.7 kmh 29.73 in1006.8 mb - 0.00 in0.0 mm 0.00 in0.0 mm
12:00 PM 21.4°F-5.9°C 21.1°F-6.1°C 99% Calm Calm -- 29.71 in1006.1 mb - 0.00 in0.0 mm 0.00 in0.0 mm
01:00 PM 23.3°F-4.8°C 23.0°F-5.0°C 99% Calm Calm -- 29.69 in1005.4 mb - 0.00 in0.0 mm 0.00 in0.0 mm
02:00 PM 23.0°F-5.0°C 22.8°F-5.1°C 99% Calm Calm -- 29.67 in1004.7 mb - 0.00 in0.0 mm 0.00 in0.0 mm
03:00 PM 20.9°F-6.2°C 20.7°F-6.3°C 99% Calm Calm -- 29.66 in1004.4 mb - 0.00 in0.0 mm 0.00 in0.0 mm
04:00 PM 21.9°F-5.6°C 21.7°F-5.7°C 99% Calm Calm -- 29.67 in1004.7 mb - 0.00 in0.0 mm 0.00 in0.0 mm
05:00 PM 20.3°F-6.5°C 20.1°F-6.6°C 99% Calm Calm -- 29.66 in1004.4 mb - 0.00 in0.0 mm 0.00 in0.0 mm
06:00 PM 18.1°F-7.7°C 17.9°F-7.8°C 99% Calm Calm -- 29.66 in1004.4 mb - 0.00 in0.0 mm 0.00 in0.0 mm
07:00 PM 16.9°F-8.4°C 16.7°F-8.5°C 99% Calm Calm -- 29.66 in1004.4 mb - 0.00 in0.0 mm 0.00 in0.0 mm
08:00 PM 17.4°F-8.1°C 17.2°F-8.2°C 99% Calm Calm -- 29.66 in1004.4 mb - 0.00 in0.0 mm 0.00 in0.0 mm
09:00 PM 18.5°F-7.5°C 18.3°F-7.6°C 99% Calm Calm -- 29.67 in1004.7 mb - 0.00 in0.0 mm 0.00 in0.0 mm
10:00 PM 19.2°F-7.1°C 19.0°F-7.2°C 99% Calm Calm -- 29.65 in1004.1 mb - 0.00 in0.0 mm 0.00 in0.0 mm
11:00 PM 19.4°F-7.0°C 19.2°F-7.1°C 99% Calm Calm -- 29.64 in1003.7 mb - 0.00 in0.0 mm 0.00 in0.0 mm